METAR Data
IDs: Format: Raw Decoded Include TAF

Data at: 2347 UTC 29 May 2020

METAR for:KIOW (Iowa City Muni, IA, US)
Text:KIOW 292252Z AUTO 31012G21KT 10SM CLR 20/08 A3012 RMK AO2 SLP198 T02000078
Temperature: 20.0°C ( 68°F)
Dewpoint: 7.8°C ( 46°F) [RH = 45%]
Pressure (altimeter):30.12 inches Hg (1020.1 mb) [Sea level pressure: 1019.8 mb]
Winds:from the NW (310 degrees) at 14 MPH (12 knots; 6.2 m/s) gusting to 24 MPH (21 knots; 10.8 m/s)
Visibility:10 or more sm (16+ km)
Ceiling:at least 12,000 feet AGL
Clouds:sky clear below 12,000 feet AGL
QC Flag:automated observation with no human augmentation